sensor_id;sensor_type;location;lat;lon;timestamp;P1;durP1;ratioP1;P2;durP2;ratioP2
19643;SDS011;9970;-36.854;174.870;2022-10-31T00:01:01;2.20;;;2.20;;
19643;SDS011;9970;-36.854;174.870;2022-10-31T00:03:35;1.93;;;1.93;;
19643;SDS011;9970;-36.854;174.870;2022-10-31T00:06:08;2.10;;;2.10;;
19643;SDS011;9970;-36.854;174.870;2022-10-31T00:08:41;2.10;;;2.10;;
19643;SDS011;9970;-36.854;174.870;2022-10-31T00:11:14;2.10;;;2.10;;
19643;SDS011;9970;-36.854;174.870;2022-10-31T00:13:47;2.23;;;2.23;;
19643;SDS011;9970;-36.854;174.870;2022-10-31T00:16:20;2.40;;;2.40;;
19643;SDS011;9970;-36.854;174.870;2022-10-31T00:18:58;2.20;;;2.20;;
19643;SDS011;9970;-36.854;174.870;2022-10-31T00:21:32;2.10;;;2.10;;
19643;SDS011;9970;-36.854;174.870;2022-10-31T00:24:05;2.20;;;2.20;;
19643;SDS011;9970;-36.854;174.870;2022-10-31T00:26:43;2.30;;;2.30;;
19643;SDS011;9970;-36.854;174.870;2022-10-31T00:29:16;2.20;;;2.20;;
19643;SDS011;9970;-36.854;174.870;2022-10-31T00:31:50;2.30;;;2.30;;
19643;SDS011;9970;-36.854;174.870;2022-10-31T00:34:25;2.20;;;2.20;;
19643;SDS011;9970;-36.854;174.870;2022-10-31T00:36:58;2.30;;;2.30;;
19643;SDS011;9970;-36.854;174.870;2022-10-31T00:39:31;2.30;;;2.30;;
19643;SDS011;9970;-36.854;174.870;2022-10-31T00:42:04;2.20;;;2.20;;
19643;SDS011;9970;-36.854;174.870;2022-10-31T00:44:37;2.20;;;2.20;;
19643;SDS011;9970;-36.854;174.870;2022-10-31T00:47:10;2.20;;;2.20;;
19643;SDS011;9970;-36.854;174.870;2022-10-31T00:49:43;2.20;;;2.20;;
19643;SDS011;9970;-36.854;174.870;2022-10-31T00:52:16;2.10;;;2.10;;
19643;SDS011;9970;-36.854;174.870;2022-10-31T00:54:50;2.10;;;2.10;;
19643;SDS011;9970;-36.854;174.870;2022-10-31T00:57:23;2.20;;;2.20;;
19643;SDS011;9970;-36.854;174.870;2022-10-31T00:59:56;2.20;;;2.20;;
19643;SDS011;9970;-36.854;174.870;2022-10-31T01:02:29;2.27;;;2.27;;
19643;SDS011;9970;-36.854;174.870;2022-10-31T01:05:02;2.40;;;2.40;;
19643;SDS011;9970;-36.854;174.870;2022-10-31T01:07:39;2.40;;;2.40;;
19643;SDS011;9970;-36.854;174.870;2022-10-31T01:10:13;2.40;;;2.40;;
19643;SDS011;9970;-36.854;174.870;2022-10-31T01:12:47;2.40;;;2.40;;
19643;SDS011;9970;-36.854;174.870;2022-10-31T01:15:20;2.30;;;2.30;;
19643;SDS011;9970;-36.854;174.870;2022-10-31T01:17:53;2.50;;;2.50;;
19643;SDS011;9970;-36.854;174.870;2022-10-31T01:20:27;2.70;;;2.70;;
19643;SDS011;9970;-36.854;174.870;2022-10-31T01:23:00;2.70;;;2.70;;
19643;SDS011;9970;-36.854;174.870;2022-10-31T01:25:33;2.60;;;2.60;;
19643;SDS011;9970;-36.854;174.870;2022-10-31T01:28:10;2.50;;;2.50;;
19643;SDS011;9970;-36.854;174.870;2022-10-31T01:30:43;2.40;;;2.40;;
19643;SDS011;9970;-36.854;174.870;2022-10-31T01:33:16;2.20;;;2.20;;
19643;SDS011;9970;-36.854;174.870;2022-10-31T01:35:49;2.20;;;2.20;;
19643;SDS011;9970;-36.854;174.870;2022-10-31T01:38:22;2.40;;;2.40;;
19643;SDS011;9970;-36.854;174.870;2022-10-31T01:40:55;2.40;;;2.40;;
19643;SDS011;9970;-36.854;174.870;2022-10-31T01:46:27;2.30;;;2.30;;
19643;SDS011;9970;-36.854;174.870;2022-10-31T01:48:55;2.20;;;2.20;;
19643;SDS011;9970;-36.854;174.870;2022-10-31T01:51:29;2.20;;;2.20;;
19643;SDS011;9970;-36.854;174.870;2022-10-31T01:54:06;2.20;;;2.20;;
19643;SDS011;9970;-36.854;174.870;2022-10-31T01:56:42;2.10;;;2.10;;
19643;SDS011;9970;-36.854;174.870;2022-10-31T01:59:16;2.10;;;2.10;;
19643;SDS011;9970;-36.854;174.870;2022-10-31T02:01:51;2.10;;;2.10;;
19643;SDS011;9970;-36.854;174.870;2022-10-31T02:04:25;2.20;;;2.20;;
19643;SDS011;9970;-36.854;174.870;2022-10-31T02:07:07;2.10;;;2.10;;
19643;SDS011;9970;-36.854;174.870;2022-10-31T02:09:36;2.10;;;2.10;;
19643;SDS011;9970;-36.854;174.870;2022-10-31T02:12:10;2.30;;;2.30;;
19643;SDS011;9970;-36.854;174.870;2022-10-31T02:14:44;2.10;;;2.10;;
19643;SDS011;9970;-36.854;174.870;2022-10-31T02:17:17;2.30;;;2.30;;
19643;SDS011;9970;-36.854;174.870;2022-10-31T02:23:07;2.30;;;2.30;;
19643;SDS011;9970;-36.854;174.870;2022-10-31T02:26:20;2.20;;;2.20;;
19643;SDS011;9970;-36.854;174.870;2022-10-31T02:34:16;2.20;;;2.20;;
19643;SDS011;9970;-36.854;174.870;2022-10-31T02:39:25;2.23;;;2.23;;
19643;SDS011;9970;-36.854;174.870;2022-10-31T02:42:09;2.30;;;2.30;;
19643;SDS011;9970;-36.854;174.870;2022-10-31T02:44:58;2.10;;;2.10;;
19643;SDS011;9970;-36.854;174.870;2022-10-31T02:47:28;2.20;;;2.20;;
19643;SDS011;9970;-36.854;174.870;2022-10-31T02:50:10;2.00;;;2.00;;
19643;SDS011;9970;-36.854;174.870;2022-10-31T02:52:43;2.00;;;2.00;;
19643;SDS011;9970;-36.854;174.870;2022-10-31T02:58:11;2.00;;;2.00;;
19643;SDS011;9970;-36.854;174.870;2022-10-31T03:01:31;2.00;;;2.00;;
19643;SDS011;9970;-36.854;174.870;2022-10-31T03:09:38;2.00;;;2.00;;
19643;SDS011;9970;-36.854;174.870;2022-10-31T03:12:15;2.00;;;2.00;;
19643;SDS011;9970;-36.854;174.870;2022-10-31T03:14:58;2.00;;;2.00;;
19643;SDS011;9970;-36.854;174.870;2022-10-31T03:17:42;2.00;;;2.00;;
19643;SDS011;9970;-36.854;174.870;2022-10-31T03:20:13;1.97;;;1.97;;
19643;SDS011;9970;-36.854;174.870;2022-10-31T03:22:49;2.00;;;2.00;;
19643;SDS011;9970;-36.854;174.870;2022-10-31T03:25:27;2.10;;;2.10;;
19643;SDS011;9970;-36.854;174.870;2022-10-31T03:28:02;2.00;;;2.00;;
19643;SDS011;9970;-36.854;174.870;2022-10-31T03:30:37;2.00;;;2.00;;
19643;SDS011;9970;-36.854;174.870;2022-10-31T03:33:17;2.10;;;2.10;;
19643;SDS011;9970;-36.854;174.870;2022-10-31T03:35:47;2.20;;;2.20;;
19643;SDS011;9970;-36.854;174.870;2022-10-31T03:38:22;2.10;;;2.10;;
19643;SDS011;9970;-36.854;174.870;2022-10-31T03:40:55;1.90;;;1.90;;
19643;SDS011;9970;-36.854;174.870;2022-10-31T03:43:36;1.60;;;1.60;;
19643;SDS011;9970;-36.854;174.870;2022-10-31T03:46:08;1.60;;;1.60;;
19643;SDS011;9970;-36.854;174.870;2022-10-31T03:48:41;2.10;;;2.10;;
19643;SDS011;9970;-36.854;174.870;2022-10-31T03:51:27;1.90;;;1.90;;
19643;SDS011;9970;-36.854;174.870;2022-10-31T03:54:13;2.00;;;2.00;;
19643;SDS011;9970;-36.854;174.870;2022-10-31T03:56:53;2.10;;;2.10;;
19643;SDS011;9970;-36.854;174.870;2022-10-31T03:59:36;1.80;;;1.80;;
19643;SDS011;9970;-36.854;174.870;2022-10-31T04:02:16;1.93;;;1.93;;
19643;SDS011;9970;-36.854;174.870;2022-10-31T04:04:51;2.00;;;2.00;;
19643;SDS011;9970;-36.854;174.870;2022-10-31T04:07:25;2.10;;;2.10;;
19643;SDS011;9970;-36.854;174.870;2022-10-31T04:10:00;2.10;;;2.10;;
19643;SDS011;9970;-36.854;174.870;2022-10-31T04:12:35;2.03;;;2.03;;
19643;SDS011;9970;-36.854;174.870;2022-10-31T04:15:09;2.00;;;2.00;;
19643;SDS011;9970;-36.854;174.870;2022-10-31T04:17:43;1.90;;;1.90;;
19643;SDS011;9970;-36.854;174.870;2022-10-31T04:20:18;1.90;;;1.90;;
19643;SDS011;9970;-36.854;174.870;2022-10-31T04:22:52;1.90;;;1.90;;
19643;SDS011;9970;-36.854;174.870;2022-10-31T04:25:25;1.90;;;1.90;;
19643;SDS011;9970;-36.854;174.870;2022-10-31T04:27:58;2.00;;;2.00;;
19643;SDS011;9970;-36.854;174.870;2022-10-31T04:30:31;2.00;;;2.00;;
19643;SDS011;9970;-36.854;174.870;2022-10-31T04:33:04;2.17;;;2.17;;
19643;SDS011;9970;-36.854;174.870;2022-10-31T04:35:37;2.00;;;2.00;;
19643;SDS011;9970;-36.854;174.870;2022-10-31T04:38:10;2.20;;;2.20;;
19643;SDS011;9970;-36.854;174.870;2022-10-31T04:40:44;2.10;;;2.10;;
19643;SDS011;9970;-36.854;174.870;2022-10-31T04:43:17;1.87;;;1.87;;
19643;SDS011;9970;-36.854;174.870;2022-10-31T04:45:50;1.90;;;1.90;;
19643;SDS011;9970;-36.854;174.870;2022-10-31T04:48:26;1.90;;;1.90;;
19643;SDS011;9970;-36.854;174.870;2022-10-31T04:50:59;1.83;;;1.83;;
19643;SDS011;9970;-36.854;174.870;2022-10-31T04:53:32;1.90;;;1.90;;
19643;SDS011;9970;-36.854;174.870;2022-10-31T04:56:06;1.97;;;1.97;;
19643;SDS011;9970;-36.854;174.870;2022-10-31T04:58:39;1.80;;;1.80;;
19643;SDS011;9970;-36.854;174.870;2022-10-31T05:01:12;1.80;;;1.80;;
19643;SDS011;9970;-36.854;174.870;2022-10-31T05:03:45;1.80;;;1.80;;
19643;SDS011;9970;-36.854;174.870;2022-10-31T05:06:18;1.90;;;1.90;;
19643;SDS011;9970;-36.854;174.870;2022-10-31T05:08:51;1.80;;;1.80;;
19643;SDS011;9970;-36.854;174.870;2022-10-31T05:11:24;1.80;;;1.80;;
19643;SDS011;9970;-36.854;174.870;2022-10-31T05:13:57;1.90;;;1.90;;
19643;SDS011;9970;-36.854;174.870;2022-10-31T05:16:30;1.70;;;1.70;;
19643;SDS011;9970;-36.854;174.870;2022-10-31T05:19:03;1.80;;;1.80;;
19643;SDS011;9970;-36.854;174.870;2022-10-31T05:21:36;1.77;;;1.77;;
19643;SDS011;9970;-36.854;174.870;2022-10-31T05:24:09;1.70;;;1.70;;
19643;SDS011;9970;-36.854;174.870;2022-10-31T05:26:42;1.80;;;1.80;;
19643;SDS011;9970;-36.854;174.870;2022-10-31T05:29:15;1.87;;;1.87;;
19643;SDS011;9970;-36.854;174.870;2022-10-31T05:31:48;1.80;;;1.80;;
19643;SDS011;9970;-36.854;174.870;2022-10-31T05:34:20;1.70;;;1.70;;
19643;SDS011;9970;-36.854;174.870;2022-10-31T05:36:53;1.70;;;1.70;;
19643;SDS011;9970;-36.854;174.870;2022-10-31T05:39:26;1.80;;;1.80;;
19643;SDS011;9970;-36.854;174.870;2022-10-31T05:41:59;1.70;;;1.70;;
19643;SDS011;9970;-36.854;174.870;2022-10-31T05:44:32;1.70;;;1.70;;
19643;SDS011;9970;-36.854;174.870;2022-10-31T05:47:07;1.70;;;1.70;;
19643;SDS011;9970;-36.854;174.870;2022-10-31T05:49:40;1.80;;;1.80;;
19643;SDS011;9970;-36.854;174.870;2022-10-31T05:52:13;1.80;;;1.80;;
19643;SDS011;9970;-36.854;174.870;2022-10-31T05:54:46;1.80;;;1.80;;
19643;SDS011;9970;-36.854;174.870;2022-10-31T05:57:20;1.90;;;1.90;;
19643;SDS011;9970;-36.854;174.870;2022-10-31T05:59:53;1.80;;;1.80;;
19643;SDS011;9970;-36.854;174.870;2022-10-31T06:02:26;1.80;;;1.80;;
19643;SDS011;9970;-36.854;174.870;2022-10-31T06:05:00;1.83;;;1.83;;
19643;SDS011;9970;-36.854;174.870;2022-10-31T06:07:33;1.80;;;1.80;;
19643;SDS011;9970;-36.854;174.870;2022-10-31T06:10:06;1.93;;;1.93;;
19643;SDS011;9970;-36.854;174.870;2022-10-31T06:12:40;1.70;;;1.70;;
19643;SDS011;9970;-36.854;174.870;2022-10-31T06:15:13;1.90;;;1.90;;
19643;SDS011;9970;-36.854;174.870;2022-10-31T06:18:00;1.77;;;1.77;;
19643;SDS011;9970;-36.854;174.870;2022-10-31T06:20:34;1.70;;;1.70;;
19643;SDS011;9970;-36.854;174.870;2022-10-31T06:23:07;1.70;;;1.70;;
19643;SDS011;9970;-36.854;174.870;2022-10-31T06:25:40;1.70;;;1.70;;
19643;SDS011;9970;-36.854;174.870;2022-10-31T06:28:13;1.80;;;1.80;;
19643;SDS011;9970;-36.854;174.870;2022-10-31T06:30:46;1.73;;;1.73;;
19643;SDS011;9970;-36.854;174.870;2022-10-31T06:33:19;1.70;;;1.70;;
19643;SDS011;9970;-36.854;174.870;2022-10-31T06:35:54;2.00;;;2.00;;
19643;SDS011;9970;-36.854;174.870;2022-10-31T06:38:27;1.80;;;1.80;;
19643;SDS011;9970;-36.854;174.870;2022-10-31T06:41:04;1.90;;;1.90;;
19643;SDS011;9970;-36.854;174.870;2022-10-31T06:43:37;1.80;;;1.80;;
19643;SDS011;9970;-36.854;174.870;2022-10-31T06:46:10;1.90;;;1.90;;
19643;SDS011;9970;-36.854;174.870;2022-10-31T06:48:43;1.80;;;1.80;;
19643;SDS011;9970;-36.854;174.870;2022-10-31T06:51:15;1.90;;;1.90;;
19643;SDS011;9970;-36.854;174.870;2022-10-31T06:53:48;2.00;;;2.00;;
19643;SDS011;9970;-36.854;174.870;2022-10-31T06:56:23;2.00;;;2.00;;
19643;SDS011;9970;-36.854;174.870;2022-10-31T06:58:57;1.80;;;1.80;;
19643;SDS011;9970;-36.854;174.870;2022-10-31T07:01:31;1.80;;;1.80;;
19643;SDS011;9970;-36.854;174.870;2022-10-31T07:04:11;1.70;;;1.70;;
19643;SDS011;9970;-36.854;174.870;2022-10-31T07:06:46;1.63;;;1.63;;
19643;SDS011;9970;-36.854;174.870;2022-10-31T07:09:21;1.70;;;1.70;;
19643;SDS011;9970;-36.854;174.870;2022-10-31T07:11:54;1.60;;;1.60;;
19643;SDS011;9970;-36.854;174.870;2022-10-31T07:14:27;1.70;;;1.70;;
19643;SDS011;9970;-36.854;174.870;2022-10-31T07:17:00;1.70;;;1.70;;
19643;SDS011;9970;-36.854;174.870;2022-10-31T07:19:33;1.60;;;1.60;;
19643;SDS011;9970;-36.854;174.870;2022-10-31T07:22:06;1.70;;;1.70;;
19643;SDS011;9970;-36.854;174.870;2022-10-31T07:24:39;1.70;;;1.70;;
19643;SDS011;9970;-36.854;174.870;2022-10-31T07:27:12;1.80;;;1.80;;
19643;SDS011;9970;-36.854;174.870;2022-10-31T07:29:47;1.70;;;1.70;;
19643;SDS011;9970;-36.854;174.870;2022-10-31T07:32:20;1.70;;;1.70;;
19643;SDS011;9970;-36.854;174.870;2022-10-31T07:34:54;1.70;;;1.70;;
19643;SDS011;9970;-36.854;174.870;2022-10-31T07:37:27;1.60;;;1.60;;
19643;SDS011;9970;-36.854;174.870;2022-10-31T07:40:00;1.70;;;1.70;;
19643;SDS011;9970;-36.854;174.870;2022-10-31T07:42:40;1.60;;;1.60;;
19643;SDS011;9970;-36.854;174.870;2022-10-31T07:45:15;1.70;;;1.70;;
19643;SDS011;9970;-36.854;174.870;2022-10-31T07:47:49;1.70;;;1.70;;
19643;SDS011;9970;-36.854;174.870;2022-10-31T07:50:28;1.57;;;1.57;;
19643;SDS011;9970;-36.854;174.870;2022-10-31T07:53:07;1.70;;;1.70;;
19643;SDS011;9970;-36.854;174.870;2022-10-31T07:55:37;1.70;;;1.70;;
19643;SDS011;9970;-36.854;174.870;2022-10-31T07:58:11;1.70;;;1.70;;
19643;SDS011;9970;-36.854;174.870;2022-10-31T08:00:45;1.60;;;1.60;;
19643;SDS011;9970;-36.854;174.870;2022-10-31T08:03:19;1.60;;;1.60;;
19643;SDS011;9970;-36.854;174.870;2022-10-31T08:05:52;1.70;;;1.70;;
19643;SDS011;9970;-36.854;174.870;2022-10-31T08:08:26;1.60;;;1.60;;
19643;SDS011;9970;-36.854;174.870;2022-10-31T08:11:00;1.70;;;1.70;;
19643;SDS011;9970;-36.854;174.870;2022-10-31T08:13:36;1.70;;;1.70;;
19643;SDS011;9970;-36.854;174.870;2022-10-31T08:16:09;1.70;;;1.70;;
19643;SDS011;9970;-36.854;174.870;2022-10-31T08:18:42;1.80;;;1.80;;
19643;SDS011;9970;-36.854;174.870;2022-10-31T08:21:15;1.70;;;1.70;;
19643;SDS011;9970;-36.854;174.870;2022-10-31T08:23:48;1.80;;;1.80;;
19643;SDS011;9970;-36.854;174.870;2022-10-31T08:26:21;1.70;;;1.70;;
19643;SDS011;9970;-36.854;174.870;2022-10-31T08:28:54;1.70;;;1.70;;
19643;SDS011;9970;-36.854;174.870;2022-10-31T08:31:27;1.70;;;1.70;;
19643;SDS011;9970;-36.854;174.870;2022-10-31T08:34:02;1.70;;;1.70;;
19643;SDS011;9970;-36.854;174.870;2022-10-31T08:36:35;1.70;;;1.70;;
19643;SDS011;9970;-36.854;174.870;2022-10-31T08:39:11;1.60;;;1.60;;
19643;SDS011;9970;-36.854;174.870;2022-10-31T08:41:44;1.60;;;1.60;;
19643;SDS011;9970;-36.854;174.870;2022-10-31T08:44:17;1.70;;;1.70;;
19643;SDS011;9970;-36.854;174.870;2022-10-31T08:46:50;1.60;;;1.60;;
19643;SDS011;9970;-36.854;174.870;2022-10-31T08:49:24;1.60;;;1.60;;
19643;SDS011;9970;-36.854;174.870;2022-10-31T08:51:57;1.50;;;1.50;;
19643;SDS011;9970;-36.854;174.870;2022-10-31T08:54:30;1.60;;;1.60;;
19643;SDS011;9970;-36.854;174.870;2022-10-31T08:57:03;1.50;;;1.50;;
19643;SDS011;9970;-36.854;174.870;2022-10-31T08:59:36;1.40;;;1.40;;
19643;SDS011;9970;-36.854;174.870;2022-10-31T09:02:09;1.40;;;1.40;;
19643;SDS011;9970;-36.854;174.870;2022-10-31T09:04:43;1.50;;;1.50;;
19643;SDS011;9970;-36.854;174.870;2022-10-31T09:07:16;1.50;;;1.50;;
19643;SDS011;9970;-36.854;174.870;2022-10-31T09:09:49;1.60;;;1.60;;
19643;SDS011;9970;-36.854;174.870;2022-10-31T09:12:22;1.60;;;1.60;;
19643;SDS011;9970;-36.854;174.870;2022-10-31T09:14:55;1.50;;;1.50;;
19643;SDS011;9970;-36.854;174.870;2022-10-31T09:17:29;1.50;;;1.50;;
19643;SDS011;9970;-36.854;174.870;2022-10-31T09:20:02;1.50;;;1.50;;
19643;SDS011;9970;-36.854;174.870;2022-10-31T09:22:36;1.60;;;1.60;;
19643;SDS011;9970;-36.854;174.870;2022-10-31T09:25:10;1.67;;;1.67;;
19643;SDS011;9970;-36.854;174.870;2022-10-31T09:27:43;1.60;;;1.60;;
19643;SDS011;9970;-36.854;174.870;2022-10-31T09:30:16;1.60;;;1.60;;
19643;SDS011;9970;-36.854;174.870;2022-10-31T09:32:54;1.50;;;1.50;;
19643;SDS011;9970;-36.854;174.870;2022-10-31T09:35:33;1.70;;;1.70;;
19643;SDS011;9970;-36.854;174.870;2022-10-31T09:38:08;1.50;;;1.50;;
19643;SDS011;9970;-36.854;174.870;2022-10-31T09:40:48;1.50;;;1.50;;
19643;SDS011;9970;-36.854;174.870;2022-10-31T09:52:28;1.60;;;1.60;;
19643;SDS011;9970;-36.854;174.870;2022-10-31T09:55:09;1.60;;;1.60;;
19643;SDS011;9970;-36.854;174.870;2022-10-31T09:57:47;1.60;;;1.60;;
19643;SDS011;9970;-36.854;174.870;2022-10-31T10:00:23;1.60;;;1.60;;
19643;SDS011;9970;-36.854;174.870;2022-10-31T10:05:36;1.60;;;1.60;;
19643;SDS011;9970;-36.854;174.870;2022-10-31T10:08:16;1.60;;;1.60;;
19643;SDS011;9970;-36.854;174.870;2022-10-31T10:20:05;1.50;;;1.50;;
19643;SDS011;9970;-36.854;174.870;2022-10-31T10:23:11;1.70;;;1.70;;
19643;SDS011;9970;-36.854;174.870;2022-10-31T10:25:40;1.50;;;1.50;;
19643;SDS011;9970;-36.854;174.870;2022-10-31T10:28:33;1.50;;;1.50;;
19643;SDS011;9970;-36.854;174.870;2022-10-31T10:31:06;1.60;;;1.60;;
19643;SDS011;9970;-36.854;174.870;2022-10-31T10:36:49;1.40;;;1.40;;
19643;SDS011;9970;-36.854;174.870;2022-10-31T10:41:47;1.50;;;1.50;;
19643;SDS011;9970;-36.854;174.870;2022-10-31T10:44:39;1.50;;;1.50;;
19643;SDS011;9970;-36.854;174.870;2022-10-31T10:48:06;1.43;;;1.43;;
19643;SDS011;9970;-36.854;174.870;2022-10-31T10:50:21;1.50;;;1.50;;
19643;SDS011;9970;-36.854;174.870;2022-10-31T10:58:31;1.40;;;1.40;;
19643;SDS011;9970;-36.854;174.870;2022-10-31T11:01:14;1.40;;;1.40;;
19643;SDS011;9970;-36.854;174.870;2022-10-31T11:03:44;1.40;;;1.40;;
19643;SDS011;9970;-36.854;174.870;2022-10-31T11:06:18;1.40;;;1.40;;
19643;SDS011;9970;-36.854;174.870;2022-10-31T11:08:54;1.50;;;1.50;;
19643;SDS011;9970;-36.854;174.870;2022-10-31T11:11:27;1.40;;;1.40;;
19643;SDS011;9970;-36.854;174.870;2022-10-31T11:14:05;1.40;;;1.40;;
19643;SDS011;9970;-36.854;174.870;2022-10-31T11:16:55;1.40;;;1.40;;
19643;SDS011;9970;-36.854;174.870;2022-10-31T11:19:28;1.50;;;1.50;;
19643;SDS011;9970;-36.854;174.870;2022-10-31T11:22:23;1.50;;;1.50;;
19643;SDS011;9970;-36.854;174.870;2022-10-31T11:24:42;1.50;;;1.50;;
19643;SDS011;9970;-36.854;174.870;2022-10-31T11:27:23;1.50;;;1.50;;
19643;SDS011;9970;-36.854;174.870;2022-10-31T11:30:05;1.40;;;1.40;;
19643;SDS011;9970;-36.854;174.870;2022-10-31T11:32:39;1.50;;;1.50;;
19643;SDS011;9970;-36.854;174.870;2022-10-31T11:35:13;1.40;;;1.40;;
19643;SDS011;9970;-36.854;174.870;2022-10-31T11:37:48;1.63;;;1.63;;
19643;SDS011;9970;-36.854;174.870;2022-10-31T11:40:24;1.50;;;1.50;;
19643;SDS011;9970;-36.854;174.870;2022-10-31T11:42:58;1.50;;;1.50;;
19643;SDS011;9970;-36.854;174.870;2022-10-31T11:45:34;1.60;;;1.60;;
19643;SDS011;9970;-36.854;174.870;2022-10-31T11:48:21;1.40;;;1.40;;
19643;SDS011;9970;-36.854;174.870;2022-10-31T11:50:55;1.50;;;1.50;;
19643;SDS011;9970;-36.854;174.870;2022-10-31T11:53:32;1.40;;;1.40;;
19643;SDS011;9970;-36.854;174.870;2022-10-31T11:56:15;1.40;;;1.40;;
19643;SDS011;9970;-36.854;174.870;2022-10-31T11:58:54;1.40;;;1.40;;
19643;SDS011;9970;-36.854;174.870;2022-10-31T12:01:31;1.50;;;1.50;;
19643;SDS011;9970;-36.854;174.870;2022-10-31T12:04:09;1.40;;;1.40;;
19643;SDS011;9970;-36.854;174.870;2022-10-31T12:06:46;1.40;;;1.40;;
19643;SDS011;9970;-36.854;174.870;2022-10-31T12:09:21;1.50;;;1.50;;
19643;SDS011;9970;-36.854;174.870;2022-10-31T12:17:45;1.40;;;1.40;;
19643;SDS011;9970;-36.854;174.870;2022-10-31T12:26:06;1.50;;;1.50;;
19643;SDS011;9970;-36.854;174.870;2022-10-31T12:31:19;1.50;;;1.50;;
19643;SDS011;9970;-36.854;174.870;2022-10-31T12:33:59;1.53;;;1.53;;
19643;SDS011;9970;-36.854;174.870;2022-10-31T12:36:40;1.50;;;1.50;;
19643;SDS011;9970;-36.854;174.870;2022-10-31T12:39:20;1.50;;;1.50;;
19643;SDS011;9970;-36.854;174.870;2022-10-31T12:42:04;1.47;;;1.47;;
19643;SDS011;9970;-36.854;174.870;2022-10-31T13:01:19;1.40;;;1.40;;
19643;SDS011;9970;-36.854;174.870;2022-10-31T13:03:50;1.40;;;1.40;;
19643;SDS011;9970;-36.854;174.870;2022-10-31T13:06:30;1.40;;;1.40;;
19643;SDS011;9970;-36.854;174.870;2022-10-31T13:09:25;1.50;;;1.50;;
19643;SDS011;9970;-36.854;174.870;2022-10-31T13:12:06;1.40;;;1.40;;
19643;SDS011;9970;-36.854;174.870;2022-10-31T13:14:45;1.40;;;1.40;;
19643;SDS011;9970;-36.854;174.870;2022-10-31T13:17:29;1.40;;;1.40;;
19643;SDS011;9970;-36.854;174.870;2022-10-31T13:20:13;1.50;;;1.50;;
19643;SDS011;9970;-36.854;174.870;2022-10-31T13:22:54;1.50;;;1.50;;
19643;SDS011;9970;-36.854;174.870;2022-10-31T13:25:42;1.50;;;1.50;;
19643;SDS011;9970;-36.854;174.870;2022-10-31T13:31:10;1.50;;;1.50;;
19643;SDS011;9970;-36.854;174.870;2022-10-31T13:34:03;1.50;;;1.50;;
19643;SDS011;9970;-36.854;174.870;2022-10-31T13:36:37;1.60;;;1.60;;
19643;SDS011;9970;-36.854;174.870;2022-10-31T13:42:10;1.50;;;1.50;;
19643;SDS011;9970;-36.854;174.870;2022-10-31T13:44:51;1.57;;;1.57;;
19643;SDS011;9970;-36.854;174.870;2022-10-31T13:47:27;1.50;;;1.50;;
19643;SDS011;9970;-36.854;174.870;2022-10-31T13:53:57;1.50;;;1.50;;
19643;SDS011;9970;-36.854;174.870;2022-10-31T13:56:02;1.50;;;1.50;;
19643;SDS011;9970;-36.854;174.870;2022-10-31T13:58:35;1.50;;;1.50;;
19643;SDS011;9970;-36.854;174.870;2022-10-31T14:03:44;1.40;;;1.40;;
19643;SDS011;9970;-36.854;174.870;2022-10-31T14:06:19;1.47;;;1.47;;
19643;SDS011;9970;-36.854;174.870;2022-10-31T14:08:54;1.43;;;1.43;;
19643;SDS011;9970;-36.854;174.870;2022-10-31T14:11:27;1.40;;;1.40;;
19643;SDS011;9970;-36.854;174.870;2022-10-31T14:14:01;1.50;;;1.50;;
19643;SDS011;9970;-36.854;174.870;2022-10-31T14:16:35;1.40;;;1.40;;
19643;SDS011;9970;-36.854;174.870;2022-10-31T14:19:19;1.40;;;1.40;;
19643;SDS011;9970;-36.854;174.870;2022-10-31T14:21:53;1.30;;;1.30;;
19643;SDS011;9970;-36.854;174.870;2022-10-31T14:29:37;1.40;;;1.40;;
19643;SDS011;9970;-36.854;174.870;2022-10-31T14:34:53;1.40;;;1.40;;
19643;SDS011;9970;-36.854;174.870;2022-10-31T14:37:37;1.40;;;1.40;;
19643;SDS011;9970;-36.854;174.870;2022-10-31T14:49:18;1.50;;;1.50;;
19643;SDS011;9970;-36.854;174.870;2022-10-31T14:51:47;1.60;;;1.60;;
19643;SDS011;9970;-36.854;174.870;2022-10-31T14:54:32;1.50;;;1.50;;
19643;SDS011;9970;-36.854;174.870;2022-10-31T14:57:20;1.40;;;1.40;;
19643;SDS011;9970;-36.854;174.870;2022-10-31T14:59:50;1.30;;;1.30;;
19643;SDS011;9970;-36.854;174.870;2022-10-31T15:02:27;1.43;;;1.43;;
19643;SDS011;9970;-36.854;174.870;2022-10-31T15:05:03;1.40;;;1.40;;
19643;SDS011;9970;-36.854;174.870;2022-10-31T15:07:52;1.40;;;1.40;;
19643;SDS011;9970;-36.854;174.870;2022-10-31T15:10:27;1.30;;;1.30;;
19643;SDS011;9970;-36.854;174.870;2022-10-31T15:13:17;1.30;;;1.30;;
19643;SDS011;9970;-36.854;174.870;2022-10-31T15:15:55;1.30;;;1.30;;
19643;SDS011;9970;-36.854;174.870;2022-10-31T15:18:28;1.30;;;1.30;;
19643;SDS011;9970;-36.854;174.870;2022-10-31T15:21:01;1.40;;;1.40;;
19643;SDS011;9970;-36.854;174.870;2022-10-31T15:23:35;1.30;;;1.30;;
19643;SDS011;9970;-36.854;174.870;2022-10-31T15:26:16;1.30;;;1.30;;
19643;SDS011;9970;-36.854;174.870;2022-10-31T15:28:44;1.30;;;1.30;;
19643;SDS011;9970;-36.854;174.870;2022-10-31T15:31:17;1.40;;;1.40;;
19643;SDS011;9970;-36.854;174.870;2022-10-31T15:33:50;1.30;;;1.30;;
19643;SDS011;9970;-36.854;174.870;2022-10-31T15:36:25;1.30;;;1.30;;
19643;SDS011;9970;-36.854;174.870;2022-10-31T15:38:59;1.40;;;1.40;;
19643;SDS011;9970;-36.854;174.870;2022-10-31T15:41:42;1.20;;;1.20;;
19643;SDS011;9970;-36.854;174.870;2022-10-31T15:44:24;1.30;;;1.30;;
19643;SDS011;9970;-36.854;174.870;2022-10-31T15:49:35;1.20;;;1.20;;
19643;SDS011;9970;-36.854;174.870;2022-10-31T15:52:14;1.17;;;1.17;;
19643;SDS011;9970;-36.854;174.870;2022-10-31T15:54:52;1.13;;;1.13;;
19643;SDS011;9970;-36.854;174.870;2022-10-31T15:57:30;1.20;;;1.20;;
19643;SDS011;9970;-36.854;174.870;2022-10-31T16:00:04;1.20;;;1.20;;
19643;SDS011;9970;-36.854;174.870;2022-10-31T16:02:39;1.20;;;1.20;;
19643;SDS011;9970;-36.854;174.870;2022-10-31T16:05:15;1.30;;;1.30;;
19643;SDS011;9970;-36.854;174.870;2022-10-31T16:07:53;1.20;;;1.20;;
19643;SDS011;9970;-36.854;174.870;2022-10-31T16:10:27;1.20;;;1.20;;
19643;SDS011;9970;-36.854;174.870;2022-10-31T16:13:02;1.20;;;1.20;;
19643;SDS011;9970;-36.854;174.870;2022-10-31T16:15:36;1.30;;;1.30;;
19643;SDS011;9970;-36.854;174.870;2022-10-31T16:18:10;1.20;;;1.20;;
19643;SDS011;9970;-36.854;174.870;2022-10-31T16:20:47;1.20;;;1.20;;
19643;SDS011;9970;-36.854;174.870;2022-10-31T16:23:22;1.30;;;1.30;;
19643;SDS011;9970;-36.854;174.870;2022-10-31T16:25:57;1.33;;;1.33;;
19643;SDS011;9970;-36.854;174.870;2022-10-31T16:28:30;1.30;;;1.30;;
19643;SDS011;9970;-36.854;174.870;2022-10-31T16:31:12;1.30;;;1.30;;
19643;SDS011;9970;-36.854;174.870;2022-10-31T16:33:44;1.20;;;1.20;;
19643;SDS011;9970;-36.854;174.870;2022-10-31T16:39:06;1.23;;;1.23;;
19643;SDS011;9970;-36.854;174.870;2022-10-31T16:41:39;1.30;;;1.30;;
19643;SDS011;9970;-36.854;174.870;2022-10-31T16:44:14;1.20;;;1.20;;
19643;SDS011;9970;-36.854;174.870;2022-10-31T16:49:41;1.40;;;1.40;;
19643;SDS011;9970;-36.854;174.870;2022-10-31T16:52:16;1.40;;;1.40;;
19643;SDS011;9970;-36.854;174.870;2022-10-31T16:54:48;1.40;;;1.40;;
19643;SDS011;9970;-36.854;174.870;2022-10-31T16:57:24;1.30;;;1.30;;
19643;SDS011;9970;-36.854;174.870;2022-10-31T16:59:56;1.30;;;1.30;;
19643;SDS011;9970;-36.854;174.870;2022-10-31T17:02:29;1.33;;;1.33;;
19643;SDS011;9970;-36.854;174.870;2022-10-31T17:05:02;1.30;;;1.30;;
19643;SDS011;9970;-36.854;174.870;2022-10-31T17:07:35;1.23;;;1.23;;
19643;SDS011;9970;-36.854;174.870;2022-10-31T17:10:09;1.30;;;1.30;;
19643;SDS011;9970;-36.854;174.870;2022-10-31T17:12:43;1.30;;;1.30;;